createdAt,value
2019-03-15T00:02:59.960Z,7.14
2019-03-15T00:05:34.708Z,7.15
2019-03-15T00:08:09.304Z,7.15
2019-03-15T00:10:44.290Z,7.13
2019-03-15T00:13:18.915Z,7.19
2019-03-15T00:15:52.073Z,7.20
2019-03-15T00:18:26.623Z,7.24
2019-03-15T00:21:01.319Z,7.27
2019-03-15T00:23:36.303Z,7.24
2019-03-15T00:26:11.128Z,7.21
2019-03-15T00:28:47.784Z,7.19
2019-03-15T00:31:21.235Z,7.19
2019-03-15T00:33:55.652Z,7.24
2019-03-15T00:36:30.285Z,7.24
2019-03-15T00:39:05.300Z,7.28
2019-03-15T00:41:39.953Z,7.32
2019-03-15T00:44:13.292Z,7.35
2019-03-15T00:46:47.895Z,7.26
2019-03-15T00:49:21.615Z,7.26
2019-03-15T00:51:59.278Z,7.27
2019-03-15T00:54:34.127Z,7.26
2019-03-15T00:57:08.703Z,7.26
2019-03-15T00:59:43.293Z,7.26
2019-03-15T01:02:17.960Z,7.21
2019-03-15T01:04:52.603Z,7.30
2019-03-15T01:07:27.334Z,7.30
2019-03-15T01:10:01.895Z,7.31
2019-03-15T01:12:36.417Z,7.30
2019-03-15T01:15:11.378Z,7.20
2019-03-15T01:17:46.294Z,7.19
2019-03-15T01:20:20.906Z,7.23
2019-03-15T01:25:31.957Z,7.23
2019-03-15T01:28:06.667Z,7.26
2019-03-15T01:30:41.285Z,7.16
2019-03-15T01:33:16.284Z,7.15
2019-03-15T01:35:50.871Z,7.14
2019-03-15T01:38:24.279Z,7.17
2019-03-15T01:41:00.228Z,7.19
2019-03-15T01:43:36.397Z,7.19
2019-03-15T01:46:10.961Z,7.13
2019-03-15T01:48:45.651Z,7.11
2019-03-15T01:51:20.275Z,7.05
2019-03-15T01:53:55.265Z,6.97
2019-03-15T01:56:29.760Z,6.96
2019-03-15T01:59:03.111Z,6.90
2019-03-15T02:01:36.071Z,6.92
2019-03-15T02:04:09.288Z,6.92
2019-03-15T02:06:43.911Z,6.91
2019-03-15T02:09:18.691Z,6.84
2019-03-15T02:11:52.287Z,6.90
2019-03-15T02:14:27.643Z,6.88
2019-03-15T02:17:01.101Z,6.89
2019-03-15T02:19:35.491Z,6.94
2019-03-15T02:22:10.290Z,6.94
2019-03-15T02:24:44.700Z,7.01
2019-03-15T02:27:19.355Z,6.99
2019-03-15T02:29:54.281Z,7.03
2019-03-15T02:32:28.737Z,7.02
2019-03-15T02:35:03.361Z,7.08
2019-03-15T02:37:38.288Z,7.13
2019-03-15T02:40:12.974Z,7.13
2019-03-15T02:42:48.363Z,7.08
2019-03-15T02:45:22.951Z,7.05
2019-03-15T02:47:57.669Z,7.01
2019-03-15T02:50:32.267Z,6.97
2019-03-15T02:53:06.954Z,6.90
2019-03-15T02:55:42.662Z,6.98
2019-03-15T02:58:17.359Z,6.96
2019-03-15T03:00:52.288Z,6.97
2019-03-15T03:03:27.289Z,6.94
2019-03-15T03:06:02.404Z,6.91
2019-03-15T03:08:37.278Z,7.01
2019-03-15T03:11:11.982Z,7.01
2019-03-15T03:13:47.654Z,6.96
2019-03-15T03:16:22.286Z,6.96
2019-03-15T03:18:57.192Z,6.97
2019-03-15T03:21:32.287Z,6.93
2019-03-15T03:24:07.295Z,6.98
2019-03-15T03:26:42.344Z,7.04
2019-03-15T03:29:17.291Z,7.05
2019-03-15T03:31:52.291Z,6.95
2019-03-15T03:34:26.947Z,6.95
2019-03-15T03:37:01.970Z,6.98
2019-03-15T03:39:37.112Z,7.03
2019-03-15T03:42:11.778Z,6.90
2019-03-15T03:44:46.638Z,6.90
2019-03-15T03:49:12.762Z,6.82
2019-03-15T03:51:47.275Z,6.82
2019-03-15T03:54:22.309Z,6.85
2019-03-15T03:56:56.952Z,6.82
2019-03-15T03:59:31.877Z,6.85
2019-03-15T04:02:09.941Z,6.85
2019-03-15T04:04:44.735Z,6.77
2019-03-15T04:07:19.478Z,6.79
2019-03-15T04:09:54.328Z,6.80
2019-03-15T04:12:28.940Z,6.80
2019-03-15T04:15:03.686Z,6.87
2019-03-15T04:17:37.276Z,6.87
2019-03-15T04:20:11.855Z,6.85
2019-03-15T04:22:46.682Z,6.88
2019-03-15T04:25:21.387Z,6.83
2019-03-15T04:27:56.278Z,6.81
2019-03-15T04:30:31.276Z,6.87
2019-03-15T04:33:06.284Z,6.81
2019-03-15T04:35:41.266Z,6.79
2019-03-15T04:38:16.242Z,6.86
2019-03-15T04:40:50.742Z,6.86
2019-03-15T04:43:25.289Z,6.88
2019-03-15T04:46:00.135Z,6.84
2019-03-15T04:48:34.689Z,6.92
2019-03-15T04:51:09.519Z,6.92
2019-03-15T04:53:44.286Z,6.86
2019-03-15T04:56:18.951Z,6.84
2019-03-15T04:58:53.704Z,6.94
2019-03-15T05:01:28.278Z,6.90
2019-03-15T05:04:03.292Z,6.77
2019-03-15T05:06:38.441Z,6.78
2019-03-15T05:09:13.363Z,6.91
2019-03-15T05:11:48.275Z,6.84
2019-03-15T05:14:22.758Z,6.70
2019-03-15T05:16:57.293Z,6.71
2019-03-15T05:19:31.944Z,6.70
2019-03-15T05:22:06.797Z,6.75
2019-03-15T05:24:42.551Z,6.75
2019-03-15T05:27:17.279Z,6.68
2019-03-15T05:29:51.946Z,6.62
2019-03-15T05:32:26.286Z,6.57
2019-03-15T05:35:00.950Z,6.66
2019-03-15T05:37:34.096Z,6.54
2019-03-15T05:40:09.287Z,6.55
2019-03-15T05:42:43.860Z,6.58
2019-03-15T05:45:18.319Z,6.53
2019-03-15T05:47:53.174Z,6.50
2019-03-15T05:50:28.120Z,6.53
2019-03-15T05:53:02.710Z,6.62
2019-03-15T05:55:37.280Z,6.64
2019-03-15T05:58:12.954Z,6.64
2019-03-15T06:00:47.769Z,6.62
2019-03-15T06:03:23.297Z,6.66
2019-03-15T06:05:58.103Z,6.64
2019-03-15T06:08:33.659Z,6.78
2019-03-15T06:11:08.288Z,6.78
2019-03-15T06:13:42.793Z,6.77
2019-03-15T06:16:16.273Z,6.73
2019-03-15T06:18:50.727Z,6.86
2019-03-15T06:21:25.308Z,7.04
2019-03-15T06:24:00.128Z,7.16
2019-03-15T06:26:34.666Z,7.19
2019-03-15T06:29:09.283Z,7.19
2019-03-15T06:31:43.860Z,7.30
2019-03-15T06:34:17.278Z,7.32
2019-03-15T06:36:51.684Z,7.51
2019-03-15T06:39:26.273Z,7.51
2019-03-15T06:42:01.281Z,7.39
2019-03-15T06:44:37.575Z,7.35
2019-03-15T06:47:12.298Z,7.33
2019-03-15T06:49:47.325Z,7.46
2019-03-15T06:52:22.269Z,7.67
2019-03-15T06:54:57.709Z,7.99
2019-03-15T06:57:32.395Z,8.12
2019-03-15T07:00:07.750Z,8.09
2019-03-15T07:02:41.255Z,8.08
2019-03-15T07:05:15.688Z,8.06
2019-03-15T07:07:50.317Z,8.06
2019-03-15T07:10:25.108Z,8.11
2019-03-15T07:12:59.898Z,8.75
2019-03-15T07:15:33.248Z,8.98
2019-03-15T07:18:08.042Z,9.07
2019-03-15T07:20:42.791Z,8.93
2019-03-15T07:25:39.936Z,8.67
2019-03-15T07:28:14.290Z,8.67
2019-03-15T07:30:49.075Z,8.77
2019-03-15T07:33:23.725Z,8.95
2019-03-15T07:35:56.864Z,8.95
2019-03-15T07:38:31.133Z,9.32
2019-03-15T07:41:05.924Z,9.45
2019-03-15T07:43:39.266Z,9.83
2019-03-15T07:46:13.692Z,10.46
2019-03-15T07:48:48.275Z,10.46
2019-03-15T07:51:22.701Z,10.48
2019-03-15T07:53:57.272Z,11.05
2019-03-15T07:56:31.827Z,10.76
2019-03-15T07:59:06.074Z,10.26
2019-03-15T08:01:39.270Z,10.43
2019-03-15T08:04:16.971Z,9.88
2019-03-15T08:06:49.905Z,9.88
2019-03-15T08:09:22.674Z,9.76
2019-03-15T08:11:57.258Z,9.95
2019-03-15T08:14:31.869Z,10.56
2019-03-15T08:17:05.330Z,10.42
2019-03-15T08:19:39.656Z,10.29
2019-03-15T08:22:15.266Z,10.46
2019-03-15T08:24:51.821Z,10.36
2019-03-15T08:27:26.920Z,10.24
2019-03-15T08:30:01.271Z,10.24
2019-03-15T08:32:35.940Z,10.44
2019-03-15T08:35:11.631Z,10.03
2019-03-15T08:37:46.342Z,10.13
2019-03-15T08:40:21.095Z,10.58
2019-03-15T08:42:55.698Z,10.84
2019-03-15T08:45:29.263Z,10.84
2019-03-15T08:48:04.732Z,10.51
2019-03-15T08:50:38.041Z,10.51
2019-03-15T08:53:11.092Z,10.92
2019-03-15T08:55:45.645Z,11.02
2019-03-15T08:58:22.167Z,11.02
2019-03-15T09:00:56.623Z,11.05
2019-03-15T09:03:34.161Z,11.25
2019-03-15T09:06:08.108Z,11.41
2019-03-15T09:08:42.683Z,12.42
2019-03-15T09:11:17.270Z,11.89
2019-03-15T09:13:52.105Z,11.89
2019-03-15T09:16:26.714Z,11.99
2019-03-15T09:19:01.635Z,11.90
2019-03-15T09:21:36.269Z,11.87
2019-03-15T09:24:11.269Z,11.87
2019-03-15T09:26:45.706Z,11.87
2019-03-15T09:29:19.263Z,11.47
2019-03-15T09:32:04.880Z,10.93
2019-03-15T09:34:30.350Z,10.93
2019-03-15T09:37:05.286Z,10.71
2019-03-15T09:39:40.136Z,10.81
2019-03-15T09:42:14.738Z,11.13
2019-03-15T09:44:49.553Z,11.13
2019-03-15T09:47:24.274Z,10.78
2019-03-15T09:49:58.886Z,10.57
2019-03-15T09:52:32.265Z,10.99
2019-03-15T09:55:07.123Z,11.04
2019-03-15T09:57:42.056Z,11.04
2019-03-15T10:00:17.861Z,10.91
2019-03-15T10:02:51.292Z,10.91
2019-03-15T10:05:26.265Z,11.33
2019-03-15T10:08:00.930Z,11.33
2019-03-15T10:10:34.268Z,11.58
2019-03-15T10:13:08.656Z,11.14
2019-03-15T10:15:43.309Z,11.14
2019-03-15T10:18:17.945Z,10.96
2019-03-15T10:20:51.105Z,10.96
2019-03-15T10:23:25.714Z,10.91
2019-03-15T10:26:00.254Z,10.77
2019-03-15T10:28:35.072Z,10.50
2019-03-15T10:31:09.663Z,10.96
2019-03-15T10:33:50.252Z,10.96
2019-03-15T10:36:20.669Z,11.25
2019-03-15T10:38:55.287Z,11.34
2019-03-15T10:41:30.273Z,11.89
2019-03-15T10:44:04.893Z,11.89
2019-03-15T10:46:40.530Z,11.74
2019-03-15T10:49:15.281Z,11.15
2019-03-15T10:51:49.766Z,11.15
2019-03-15T10:54:24.302Z,11.15
2019-03-15T10:56:59.245Z,10.86
2019-03-15T10:59:33.706Z,10.77
2019-03-15T11:02:09.316Z,10.57
2019-03-15T11:04:43.987Z,10.42
2019-03-15T11:07:17.334Z,9.51
2019-03-15T11:09:51.686Z,9.51
2019-03-15T11:12:26.307Z,9.38
2019-03-15T11:15:00.890Z,9.57
2019-03-15T11:17:35.327Z,9.39
2019-03-15T11:20:10.702Z,9.27
2019-03-15T11:22:45.271Z,9.32
2019-03-15T11:25:19.875Z,9.28
2019-03-15T11:27:53.078Z,9.12
2019-03-15T11:30:27.287Z,9.11
2019-03-15T11:33:02.262Z,9.24
2019-03-15T11:35:37.265Z,9.29
2019-03-15T11:38:12.258Z,9.20
2019-03-15T11:40:47.271Z,8.97
2019-03-15T11:43:22.140Z,9.09
2019-03-15T11:45:56.723Z,9.38
2019-03-15T11:48:31.322Z,9.38
2019-03-15T11:51:05.708Z,9.35
2019-03-15T11:53:40.269Z,9.37
2019-03-15T11:56:26.462Z,9.37
2019-03-15T11:58:52.273Z,9.33
2019-03-15T12:01:27.240Z,9.04
2019-03-15T12:04:01.764Z,8.84
2019-03-15T12:06:36.278Z,8.86
2019-03-15T12:09:11.628Z,8.81
2019-03-15T12:11:46.345Z,8.77
2019-03-15T12:14:20.931Z,8.73
2019-03-15T12:16:55.337Z,8.72
2019-03-15T12:19:29.949Z,8.71
2019-03-15T12:22:06.625Z,8.67
2019-03-15T12:24:39.282Z,8.65
2019-03-15T12:27:13.691Z,8.69
2019-03-15T12:29:49.270Z,8.83
2019-03-15T12:32:24.020Z,8.83
2019-03-15T12:34:58.935Z,8.76
2019-03-15T12:37:33.316Z,8.76
2019-03-15T12:40:09.113Z,9.00
2019-03-15T12:42:43.950Z,8.97
2019-03-15T12:45:18.347Z,8.89
2019-03-15T12:47:52.944Z,8.97
2019-03-15T12:50:27.642Z,8.85
2019-03-15T12:53:02.272Z,8.92
2019-03-15T12:55:36.774Z,8.85
2019-03-15T12:58:11.275Z,8.81
2019-03-15T13:00:45.952Z,8.83
2019-03-15T13:03:20.581Z,8.87
2019-03-15T13:05:55.114Z,8.84
2019-03-15T13:08:29.684Z,8.88
2019-03-15T13:11:04.284Z,8.88
2019-03-15T13:13:40.681Z,8.78
2019-03-15T13:16:15.287Z,8.89
2019-03-15T13:18:49.735Z,8.99
2019-03-15T13:21:24.271Z,9.04
2019-03-15T13:23:58.915Z,8.97
2019-03-15T13:26:33.327Z,8.86
2019-03-15T13:29:08.114Z,8.86
2019-03-15T13:31:42.730Z,8.79
2019-03-15T13:34:17.283Z,8.79
2019-03-15T13:36:51.707Z,8.79
2019-03-15T13:39:26.305Z,8.63
2019-03-15T13:42:01.286Z,8.65
2019-03-15T13:44:36.274Z,8.66
2019-03-15T13:47:10.952Z,8.60
2019-03-15T13:49:43.871Z,8.59
2019-03-15T13:52:18.299Z,8.57
2019-03-15T13:54:52.944Z,8.55
2019-03-15T13:57:27.642Z,8.59
2019-03-15T14:00:02.326Z,8.61
2019-03-15T14:02:38.251Z,8.69
2019-03-15T14:05:13.276Z,8.74
2019-03-15T14:07:47.955Z,8.79
2019-03-15T14:10:22.587Z,8.79
2019-03-15T14:12:57.294Z,8.75
2019-03-15T14:15:32.285Z,8.81
2019-03-15T14:18:06.781Z,8.87
2019-03-15T14:20:41.233Z,8.93
2019-03-15T14:23:15.777Z,8.99
2019-03-15T14:25:50.275Z,8.90
2019-03-15T14:28:25.134Z,8.90
2019-03-15T14:30:59.873Z,9.00
2019-03-15T14:33:33.270Z,9.00
2019-03-15T14:36:08.133Z,9.15
2019-03-15T14:38:42.941Z,9.19
2019-03-15T14:41:18.131Z,9.20
2019-03-15T14:43:52.801Z,9.23
2019-03-15T14:46:26.077Z,9.23
2019-03-15T14:48:59.277Z,9.20
2019-03-15T14:51:33.699Z,9.15
2019-03-15T14:54:09.294Z,9.15
2019-03-15T14:56:44.019Z,9.20
2019-03-15T14:59:18.323Z,9.26
2019-03-15T15:01:52.712Z,9.26
2019-03-15T15:04:27.288Z,9.21
2019-03-15T15:07:04.279Z,9.16
2019-03-15T15:09:38.761Z,9.03
2019-03-15T15:12:13.115Z,9.11
2019-03-15T15:14:53.002Z,9.21
2019-03-15T15:17:30.600Z,9.40
2019-03-15T15:20:05.274Z,9.40
2019-03-15T15:22:39.951Z,9.27
2019-03-15T15:25:14.655Z,9.27
2019-03-15T15:27:49.116Z,9.25
2019-03-15T15:30:23.693Z,9.27
2019-03-15T15:32:58.260Z,9.31
2019-03-15T15:35:32.899Z,9.39
2019-03-15T15:38:07.409Z,9.53
2019-03-15T15:40:41.958Z,9.54
2019-03-15T15:43:16.279Z,9.62
2019-03-15T15:45:50.705Z,9.66
2019-03-15T15:48:25.268Z,9.63
2019-03-15T15:50:59.904Z,9.59
2019-03-15T15:53:34.364Z,9.67
2019-03-15T15:56:09.889Z,9.76
2019-03-15T15:58:43.030Z,9.75
2019-03-15T16:01:17.274Z,9.74
2019-03-15T16:03:51.941Z,9.77
2019-03-15T16:06:25.110Z,9.82
2019-03-15T16:08:59.335Z,9.89
2019-03-15T16:11:33.946Z,9.89
2019-03-15T16:14:08.353Z,9.90
2019-03-15T16:16:42.876Z,9.90
2019-03-15T16:19:16.005Z,9.91
2019-03-15T16:21:50.285Z,9.93
2019-03-15T16:24:24.775Z,9.99
2019-03-15T16:26:57.680Z,10.04
2019-03-15T16:29:31.949Z,10.13
2019-03-15T16:32:06.282Z,10.11
2019-03-15T16:34:40.754Z,10.18
2019-03-15T16:37:15.283Z,10.28
2019-03-15T16:39:49.666Z,10.23
2019-03-15T16:42:24.250Z,10.20
2019-03-15T16:44:58.675Z,10.28
2019-03-15T16:47:33.044Z,10.32
2019-03-15T16:50:09.666Z,10.43
2019-03-15T16:52:44.164Z,10.43
2019-03-15T16:55:18.676Z,10.47
2019-03-15T16:57:53.363Z,10.47
2019-03-15T17:00:27.945Z,10.49
2019-03-15T17:03:02.337Z,10.68
2019-03-15T17:05:37.261Z,10.68
2019-03-15T17:08:11.967Z,10.78
2019-03-15T17:10:46.921Z,10.91
2019-03-15T17:13:21.469Z,10.91
2019-03-15T17:15:56.414Z,10.99
2019-03-15T17:18:32.284Z,10.99
2019-03-15T17:21:06.691Z,10.99
2019-03-15T17:23:41.262Z,10.98
2019-03-15T17:26:15.680Z,10.98
2019-03-15T17:28:58.587Z,11.00
2019-03-15T17:31:26.243Z,11.03
2019-03-15T17:34:00.717Z,11.07
2019-03-15T17:36:35.276Z,11.05
2019-03-15T17:39:10.713Z,11.11
2019-03-15T17:41:43.853Z,11.11
2019-03-15T17:44:18.283Z,11.13
2019-03-15T17:46:52.941Z,11.13
2019-03-15T17:49:27.265Z,11.13
2019-03-15T17:52:01.697Z,11.20
2019-03-15T17:54:36.272Z,11.23
2019-03-15T17:57:10.663Z,11.21
2019-03-15T18:00:08.328Z,11.29
2019-03-15T18:02:42.872Z,11.29
2019-03-15T18:05:17.323Z,11.30
2019-03-15T18:07:53.744Z,11.27
2019-03-15T18:10:26.694Z,11.36
2019-03-15T18:13:01.093Z,11.30
2019-03-15T18:15:35.664Z,11.40
2019-03-15T18:18:10.270Z,11.40
2019-03-15T18:20:44.701Z,11.33
2019-03-15T18:23:19.274Z,11.31
2019-03-15T18:25:53.888Z,11.27
2019-03-15T18:28:28.109Z,11.36
2019-03-15T18:31:02.614Z,11.15
2019-03-15T18:33:37.263Z,11.15
2019-03-15T18:36:11.737Z,11.11
2019-03-15T18:38:46.233Z,11.07
2019-03-15T18:41:20.672Z,11.07
2019-03-15T18:43:55.127Z,11.07
2019-03-15T18:46:29.580Z,11.08
2019-03-15T18:49:04.254Z,11.08
2019-03-15T18:51:38.701Z,11.08
2019-03-15T18:54:17.664Z,11.04
2019-03-15T18:56:49.250Z,11.01
2019-03-15T18:59:23.725Z,10.99
2019-03-15T19:02:01.294Z,11.03
2019-03-15T19:04:36.347Z,10.95
2019-03-15T19:07:11.274Z,10.73
2019-03-15T19:09:46.256Z,10.54
2019-03-15T19:12:20.776Z,10.46
2019-03-15T19:14:55.691Z,10.41
2019-03-15T19:17:30.465Z,10.33
2019-03-15T19:20:05.303Z,10.29
2019-03-15T19:22:40.079Z,10.23
2019-03-15T19:25:15.278Z,10.13
2019-03-15T19:27:50.056Z,10.06
2019-03-15T19:30:24.630Z,9.95
2019-03-15T19:32:59.277Z,9.88
2019-03-15T19:35:33.298Z,9.84
2019-03-15T19:38:08.144Z,9.80
2019-03-15T19:40:42.766Z,9.68
2019-03-15T19:43:16.033Z,9.68
2019-03-15T19:46:06.100Z,9.59
2019-03-15T19:48:42.284Z,9.59
2019-03-15T19:51:17.104Z,9.59
2019-03-15T19:53:51.725Z,9.56
2019-03-15T19:56:24.849Z,9.56
2019-03-15T19:58:59.352Z,9.57
2019-03-15T20:01:34.125Z,9.53
2019-03-15T20:04:08.703Z,9.56
2019-03-15T20:06:41.802Z,9.55
2019-03-15T20:09:15.057Z,9.47
2019-03-15T20:11:49.277Z,9.40
2019-03-15T20:14:23.928Z,9.30
2019-03-15T20:16:58.274Z,9.27
2019-03-15T20:19:32.664Z,9.25
2019-03-15T20:22:09.368Z,9.23
2019-03-15T20:24:44.479Z,9.17
2019-03-15T20:27:20.328Z,9.18
2019-03-15T20:29:54.942Z,9.17
2019-03-15T20:32:29.286Z,9.15
2019-03-15T20:35:03.768Z,9.11
2019-03-15T20:37:37.019Z,9.12
2019-03-15T20:40:11.626Z,9.10
2019-03-15T20:42:46.120Z,9.02
2019-03-15T20:45:20.788Z,9.02
2019-03-15T20:47:56.256Z,8.96
2019-03-15T20:50:31.130Z,8.95
2019-03-15T20:53:09.740Z,8.95
2019-03-15T20:55:42.067Z,8.94
2019-03-15T20:58:16.776Z,8.91
2019-03-15T21:00:51.095Z,8.91
2019-03-15T21:03:25.651Z,8.90
2019-03-15T21:06:00.283Z,8.90
2019-03-15T21:08:34.820Z,8.84
2019-03-15T21:11:07.865Z,8.82
2019-03-15T21:13:42.125Z,8.90
2019-03-15T21:16:18.243Z,8.92
2019-03-15T21:18:52.949Z,9.00
2019-03-15T21:21:28.699Z,8.95
2019-03-15T21:24:03.027Z,8.95
2019-03-15T21:26:37.335Z,8.91
2019-03-15T21:29:12.014Z,8.92
2019-03-15T21:31:46.729Z,8.99
2019-03-15T21:34:19.961Z,8.99
2019-03-15T21:36:54.283Z,9.04
2019-03-15T21:39:28.786Z,9.02
2019-03-15T21:42:03.960Z,8.98
2019-03-15T21:44:38.341Z,8.98
2019-03-15T21:47:12.961Z,9.08
2019-03-15T21:49:47.129Z,9.09
2019-03-15T21:52:21.676Z,9.08
2019-03-15T21:54:57.142Z,9.08
2019-03-15T21:57:31.896Z,9.07
2019-03-15T22:00:05.300Z,9.08
2019-03-15T22:02:39.897Z,9.01
2019-03-15T22:05:14.310Z,9.03
2019-03-15T22:07:48.759Z,9.08
2019-03-15T22:10:23.287Z,9.04
2019-03-15T22:12:57.963Z,9.10
2019-03-15T22:15:32.672Z,9.08
2019-03-15T22:18:07.138Z,9.07
2019-03-15T22:20:41.796Z,9.02
2019-03-15T22:23:16.281Z,9.06
2019-03-15T22:25:51.291Z,8.98
2019-03-15T22:28:26.906Z,8.98
2019-03-15T22:30:59.925Z,8.95
2019-03-15T22:33:34.288Z,8.95
2019-03-15T22:36:08.926Z,8.98
2019-03-15T22:38:43.282Z,8.95
2019-03-15T22:41:17.759Z,8.95
2019-03-15T22:43:50.825Z,8.96
2019-03-15T22:46:25.283Z,8.93
2019-03-15T22:48:59.960Z,8.93
2019-03-15T22:51:34.333Z,8.93
2019-03-15T22:54:08.797Z,8.94
2019-03-15T22:56:41.868Z,8.89
2019-03-15T22:59:16.295Z,8.92
2019-03-15T23:01:51.119Z,8.87
2019-03-15T23:04:25.677Z,8.81
2019-03-15T23:07:00.142Z,8.81
2019-03-15T23:09:34.962Z,8.76
2019-03-15T23:12:08.125Z,8.74
2019-03-15T23:14:42.721Z,8.73
2019-03-15T23:17:17.299Z,8.73
2019-03-15T23:19:51.907Z,8.70
2019-03-15T23:22:25.108Z,8.65
2019-03-15T23:24:59.799Z,8.71
2019-03-15T23:27:33.049Z,8.66
2019-03-15T23:30:06.290Z,8.60
2019-03-15T23:34:34.882Z,8.59
2019-03-15T23:37:07.872Z,8.49
2019-03-15T23:39:42.315Z,8.47
2019-03-15T23:42:16.952Z,8.41
2019-03-15T23:44:49.877Z,8.42
2019-03-15T23:47:24.269Z,8.39
2019-03-15T23:49:58.792Z,8.39
2019-03-15T23:52:32.045Z,8.37
2019-03-15T23:55:05.008Z,8.36
2019-03-15T23:57:37.869Z,8.41
